Impacts METAR Board
IDs:

KIAH - Houston/Bush Intl, TX, US

Updated at: 2000 UTC 15 Jun 2019
Potential Impact None Slight Moderate High
Time 15/08Z 15/09Z 15/10Z 15/11Z 15/12Z 15/13Z 15/14Z 15/15Z 15/16Z 15/17Z 15/18Z 15/19Z 15/20Z
Temp79 79 78 79 79 82 84 88 90 92 93 93 85
Dewpt74 75 75 75 76 77 77 77 76 75 74 74 76
Altim29.93 29.92 29.93 29.93 29.93 29.95 29.97 29.97 29.96 29.95 29.93 29.91 29.90
VIS10 10 10 10 10 10 10 10 10 10 10 10 10
CIG250 250 250 250 250 250 -- 250 250 100 250 250 110
CoverBKNBKNBKNBKNBKNBKNSCTBKNBKNBKNBKNBKNBKN
FltCatVFRVFRVFRVFRVFRVFRVFRVFRVFRVFRVFRVFRVFR
WX-------------------RA----TS
WDir190180170170160180190180180230210180190
WSpd4 6 5 4 5 6 9 11 11 8 10 12 12
WGst-- -- -- -- -- -- -- 17 16 15 16 20 19
Raw hourly METARs
KIAH 150753Z 19004KT 10SM FEW024 FEW150 BKN250 26/23 A2993 RMK AO2 SLP134 T02610233
KIAH 150853Z 18006KT 10SM FEW024 FEW150 BKN250 26/24 A2992 RMK AO2 SLP132 T02610239 56006
KIAH 150953Z 17005KT 10SM FEW024 BKN250 26/24 A2993 RMK AO2 SLP133 T02560239
KIAH 151053Z 17004KT 10SM FEW024 BKN250 26/24 A2993 RMK AO2 SLP133 T02610239
KIAH 151153Z 16005KT 10SM FEW024 BKN250 26/24 A2993 RMK AO2 SLP135 T02610244 10261 20250 53003
KIAH 151253Z 18006KT 10SM FEW026 BKN250 28/25 A2995 RMK AO2 SLP142 T02780250
KIAH 151353Z 19009KT 10SM FEW025 SCT250 29/25 A2997 RMK AO2 SLP148 T02890250
KIAH 151453Z 18011G17KT 10SM SCT026 SCT040 BKN250 31/25 A2997 RMK AO2 SLP147 T03110250 50012
KIAH 151553Z 18011G16KT 10SM SCT033 SCT045 BKN250 32/24 A2996 RMK AO2 SLP144 T03220244
KIAH 151653Z 23008G15KT 10SM -RA SCT037 SCT050 BKN100 BKN250 33/24 A2995 RMK AO2 RAB50 SLP142 P0000 T03330239
KIAH 151753Z 21010G16KT 10SM FEW043 SCT060 SCT100 BKN250 34/23 A2993 RMK AO2 LTG DSNT NE AND E RAE1659 SLP133 CB DSNT NE-E P0000 60000 T03390233 10344 20261 58014
KIAH 151853Z 18012G20KT 10SM FEW045 SCT070 SCT100 BKN250 34/23 A2991 RMK AO2 LTG DSNT E SLP128 CB DSNT NE-E T03390233
KIAH 152005Z 19012G19KT 10SM TS SCT037CB SCT050 BKN110 BKN250 29/24 A2990 RMK AO2 TSB04 VCSH SW-NW OCNL LTGICCG SW-NW TS SW-NW MOV NE T02940244



Page loaded:  20:34 UTC  |   01:34 PM Pacific  |   02:34 PM Mountain  |   03:34 PM Central  |   04:34 PM Eastern

 

ADVISORIES

FORECASTS

FORECASTS

OBSERVATIONS

USER TOOLS

ABOUT US